Hawk — LAGF7 — position and weather

sailwx.info

Track history (hours):
 
Tides and Currents Weather Stations Pressure Air Temp Water Temp Dewpoint Dewpoint Depression Visibility Wind Speed Wind Dir Waves Ship Positions

Hawk

Last reported at 2016-Nov-29 15:32 UTC. Time now 2016-Dec-11 11:54 UTC.
Position N 01°15' E 104°03'.
Warning: this ship's position is 11 days out of date.

Length 223 m; draft 9 m.

Type: Cargo ship. MMSI: 259848000.

Date/timePositionNaut miles runAvg speedWind from/ knotsBaromVisibWave heightAir tempDewpointWater temp
2016-Nov-29 15:32N 01°15' E 104°03'7 7.0
2016-Nov-29 14:34N 01°17' E 103°57'0 0.2
2016-Nov-29 13:34N 01°17' E 103°56'0 0.0
2016-Nov-29 12:33N 01°17' E 103°56'0 0.1
2016-Nov-29 11:33N 01°17' E 103°56'0 0.0
2016-Nov-29 10:27N 01°17' E 103°56'0 0.0
2016-Nov-29 09:26N 01°17' E 103°56'0 0.0
2016-Nov-29 08:28N 01°17' E 103°56'0 0.0
2016-Nov-29 07:33N 01°17' E 103°56'0 0.0
2016-Nov-29 06:33N 01°17' E 103°56'0 0.0
2016-Nov-29 05:33N 01°17' E 103°56'0 0.0
2016-Nov-29 04:33N 01°17' E 103°56'0 0.1
2016-Nov-29 03:31N 01°17' E 103°56'2 2.0
2016-Nov-29 02:33N 01°15' E 103°57'2 1.8
2016-Nov-29 01:33N 01°14' E 103°56'5 4.7
2016-Nov-29 00:33N 01°11' E 103°52'6 5.6
2016-Nov-28 23:33N 01°09' E 103°47'86 9.3
2016-Nov-28 14:19N 01°46' E 102°30'1012.4
2016-Nov-28 13:33N 01°50' E 102°21'  
Track history (hours):
 
Tides and Currents Weather Stations Pressure Air Temp Water Temp Dewpoint Dewpoint Depression Visibility Wind Speed Wind Dir Waves Ship Positions

Hawk

Last reported at 2016-Nov-29 15:32 UTC. Time now 2016-Dec-11 11:54 UTC.
Position N 01°15' E 104°03'.
Warning: this ship's position is 11 days out of date.

Length 223 m; draft 9 m.

Type: Cargo ship. MMSI: 259848000.

Date/timePositionNaut miles runAvg speedWind from/ knotsBaromVisibWave heightAir tempDewpointWater temp
2016-Nov-29 15:32N 01°15' E 104°03'7 7.0
2016-Nov-29 14:34N 01°17' E 103°57'0 0.2
2016-Nov-29 13:34N 01°17' E 103°56'0 0.0
2016-Nov-29 12:33N 01°17' E 103°56'0 0.1
2016-Nov-29 11:33N 01°17' E 103°56'0 0.0
2016-Nov-29 10:27N 01°17' E 103°56'0 0.0
2016-Nov-29 09:26N 01°17' E 103°56'0 0.0
2016-Nov-29 08:28N 01°17' E 103°56'0 0.0
2016-Nov-29 07:33N 01°17' E 103°56'0 0.0
2016-Nov-29 06:33N 01°17' E 103°56'0 0.0
2016-Nov-29 05:33N 01°17' E 103°56'0 0.0
2016-Nov-29 04:33N 01°17' E 103°56'0 0.1
2016-Nov-29 03:31N 01°17' E 103°56'2 2.0
2016-Nov-29 02:33N 01°15' E 103°57'2 1.8
2016-Nov-29 01:33N 01°14' E 103°56'5 4.7
2016-Nov-29 00:33N 01°11' E 103°52'6 5.6
2016-Nov-28 23:33N 01°09' E 103°47'86 9.3
2016-Nov-28 14:19N 01°46' E 102°30'1012.4
2016-Nov-28 13:33N 01°50' E 102°21'  

Dump ship's entire track history